sensor_id;sensor_type;location;lat;lon;timestamp;pressure;altitude;pressure_sealevel;temperature;humidity
41596;BME280;27283;52.504;13.358;2024-01-30T00:00:11;102556.47;;;4.87;61.31
41596;BME280;27283;52.504;13.358;2024-01-30T00:03:04;102552.28;;;4.99;60.10
41596;BME280;27283;52.504;13.358;2024-01-30T00:05:37;102548.59;;;5.02;60.31
41596;BME280;27283;52.504;13.358;2024-01-30T00:08:09;102544.28;;;5.15;59.97
41596;BME280;27283;52.504;13.358;2024-01-30T00:10:45;102546.53;;;4.91;60.13
41596;BME280;27283;52.504;13.358;2024-01-30T00:13:19;102547.50;;;4.72;60.92
41596;BME280;27283;52.504;13.358;2024-01-30T00:15:52;102552.38;;;4.82;61.10
41596;BME280;27283;52.504;13.358;2024-01-30T00:18:26;102552.19;;;4.85;60.61
41596;BME280;27283;52.504;13.358;2024-01-30T00:20:59;102555.28;;;4.93;60.37
41596;BME280;27283;52.504;13.358;2024-01-30T00:23:32;102555.44;;;4.90;60.57
41596;BME280;27283;52.504;13.358;2024-01-30T00:26:07;102545.19;;;4.66;61.12
41596;BME280;27283;52.504;13.358;2024-01-30T00:28:40;102550.88;;;4.76;60.98
41596;BME280;27283;52.504;13.358;2024-01-30T00:31:12;102556.13;;;4.93;60.08
41596;BME280;27283;52.504;13.358;2024-01-30T00:33:44;102550.00;;;4.75;60.56
41596;BME280;27283;52.504;13.358;2024-01-30T00:36:16;102549.09;;;4.92;60.41
41596;BME280;27283;52.504;13.358;2024-01-30T00:38:49;102549.53;;;5.01;60.11
41596;BME280;27283;52.504;13.358;2024-01-30T00:41:24;102550.41;;;4.68;61.61
41596;BME280;27283;52.504;13.358;2024-01-30T00:43:56;102548.16;;;4.44;61.87
41596;BME280;27283;52.504;13.358;2024-01-30T00:46:29;102543.94;;;4.56;61.68
41596;BME280;27283;52.504;13.358;2024-01-30T00:49:01;102542.16;;;4.56;61.93
41596;BME280;27283;52.504;13.358;2024-01-30T00:51:36;102544.03;;;4.88;60.57
41596;BME280;27283;52.504;13.358;2024-01-30T00:54:09;102540.09;;;4.61;61.36
41596;BME280;27283;52.504;13.358;2024-01-30T00:56:45;102535.94;;;4.56;61.79
41596;BME280;27283;52.504;13.358;2024-01-30T00:59:17;102540.19;;;4.60;61.24
41596;BME280;27283;52.504;13.358;2024-01-30T01:01:49;102534.44;;;4.68;61.10
41596;BME280;27283;52.504;13.358;2024-01-30T01:04:21;102541.66;;;4.66;61.61
41596;BME280;27283;52.504;13.358;2024-01-30T01:06:54;102541.78;;;4.47;62.35
41596;BME280;27283;52.504;13.358;2024-01-30T01:09:34;102537.66;;;4.41;62.19
41596;BME280;27283;52.504;13.358;2024-01-30T01:12:10;102544.66;;;4.26;62.85
41596;BME280;27283;52.504;13.358;2024-01-30T01:14:42;102547.09;;;4.47;62.30
41596;BME280;27283;52.504;13.358;2024-01-30T01:17:15;102540.25;;;4.25;63.07
41596;BME280;27283;52.504;13.358;2024-01-30T01:19:49;102542.31;;;4.02;64.00
41596;BME280;27283;52.504;13.358;2024-01-30T01:22:25;102542.75;;;4.46;62.98
41596;BME280;27283;52.504;13.358;2024-01-30T01:24:58;102543.75;;;4.43;62.69
41596;BME280;27283;52.504;13.358;2024-01-30T01:27:38;102556.16;;;4.60;62.33
41596;BME280;27283;52.504;13.358;2024-01-30T01:30:12;102543.66;;;4.62;62.43
41596;BME280;27283;52.504;13.358;2024-01-30T01:32:51;102547.31;;;4.59;62.38
41596;BME280;27283;52.504;13.358;2024-01-30T01:35:33;102544.09;;;4.37;62.67
41596;BME280;27283;52.504;13.358;2024-01-30T01:38:08;102544.50;;;4.63;61.89
41596;BME280;27283;52.504;13.358;2024-01-30T01:40:43;102542.09;;;4.58;62.40
41596;BME280;27283;52.504;13.358;2024-01-30T01:43:21;102544.00;;;4.38;62.65
41596;BME280;27283;52.504;13.358;2024-01-30T01:45:54;102540.88;;;4.30;62.97
41596;BME280;27283;52.504;13.358;2024-01-30T01:48:27;102538.78;;;4.19;64.01
41596;BME280;27283;52.504;13.358;2024-01-30T01:51:01;102536.59;;;4.10;64.44
41596;BME280;27283;52.504;13.358;2024-01-30T01:53:35;102530.09;;;3.98;65.11
41596;BME280;27283;52.504;13.358;2024-01-30T01:56:08;102533.88;;;3.94;65.42
41596;BME280;27283;52.504;13.358;2024-01-30T01:58:55;102538.25;;;4.13;64.33
41596;BME280;27283;52.504;13.358;2024-01-30T02:01:27;102544.38;;;4.48;63.24
41596;BME280;27283;52.504;13.358;2024-01-30T02:04:01;102535.25;;;4.36;63.60
41596;BME280;27283;52.504;13.358;2024-01-30T02:06:34;102531.78;;;4.34;63.32
41596;BME280;27283;52.504;13.358;2024-01-30T02:09:07;102539.78;;;4.34;63.74
41596;BME280;27283;52.504;13.358;2024-01-30T02:11:39;102529.69;;;4.41;63.27
41596;BME280;27283;52.504;13.358;2024-01-30T02:14:15;102533.13;;;4.25;63.90
41596;BME280;27283;52.504;13.358;2024-01-30T02:16:47;102528.13;;;4.19;64.27
41596;BME280;27283;52.504;13.358;2024-01-30T02:19:21;102537.16;;;4.17;64.24
41596;BME280;27283;52.504;13.358;2024-01-30T02:21:56;102540.50;;;4.20;64.23
41596;BME280;27283;52.504;13.358;2024-01-30T02:24:29;102539.91;;;4.15;64.77
41596;BME280;27283;52.504;13.358;2024-01-30T02:27:02;102540.22;;;3.92;65.64
41596;BME280;27283;52.504;13.358;2024-01-30T02:29:35;102532.22;;;3.92;65.80
41596;BME280;27283;52.504;13.358;2024-01-30T02:32:08;102540.66;;;4.00;65.48
41596;BME280;27283;52.504;13.358;2024-01-30T02:34:42;102537.25;;;3.98;65.58
41596;BME280;27283;52.504;13.358;2024-01-30T02:37:19;102536.59;;;4.28;64.98
41596;BME280;27283;52.504;13.358;2024-01-30T02:39:53;102533.59;;;4.34;64.47
41596;BME280;27283;52.504;13.358;2024-01-30T02:42:30;102542.06;;;4.24;64.50
41596;BME280;27283;52.504;13.358;2024-01-30T02:45:07;102529.78;;;4.22;64.99
41596;BME280;27283;52.504;13.358;2024-01-30T02:47:43;102530.31;;;4.29;64.77
41596;BME280;27283;52.504;13.358;2024-01-30T02:50:17;102521.53;;;4.26;65.09
41596;BME280;27283;52.504;13.358;2024-01-30T02:52:55;102526.09;;;4.24;64.77
41596;BME280;27283;52.504;13.358;2024-01-30T02:55:29;102526.47;;;4.34;64.41
41596;BME280;27283;52.504;13.358;2024-01-30T02:58:03;102525.53;;;4.18;64.97
41596;BME280;27283;52.504;13.358;2024-01-30T03:00:36;102522.03;;;4.17;64.84
41596;BME280;27283;52.504;13.358;2024-01-30T03:03:10;102522.34;;;4.11;65.42
41596;BME280;27283;52.504;13.358;2024-01-30T03:05:43;102524.38;;;4.23;64.81
41596;BME280;27283;52.504;13.358;2024-01-30T03:08:19;102520.38;;;4.32;64.79
41596;BME280;27283;52.504;13.358;2024-01-30T03:10:52;102518.38;;;4.36;64.23
41596;BME280;27283;52.504;13.358;2024-01-30T03:13:27;102516.34;;;4.41;64.43
41596;BME280;27283;52.504;13.358;2024-01-30T03:16:00;102507.97;;;3.98;65.70
41596;BME280;27283;52.504;13.358;2024-01-30T03:18:33;102512.16;;;4.19;64.78
41596;BME280;27283;52.504;13.358;2024-01-30T03:21:08;102520.84;;;4.23;65.05
41596;BME280;27283;52.504;13.358;2024-01-30T03:23:43;102506.72;;;4.05;65.83
41596;BME280;27283;52.504;13.358;2024-01-30T03:26:18;102508.66;;;4.01;66.17
41596;BME280;27283;52.504;13.358;2024-01-30T03:28:50;102511.78;;;3.92;66.63
41596;BME280;27283;52.504;13.358;2024-01-30T03:31:23;102510.13;;;4.24;65.39
41596;BME280;27283;52.504;13.358;2024-01-30T03:34:01;102507.63;;;4.21;65.75
41596;BME280;27283;52.504;13.358;2024-01-30T03:36:37;102508.13;;;3.77;66.82
41596;BME280;27283;52.504;13.358;2024-01-30T03:39:19;102510.16;;;3.72;67.89
41596;BME280;27283;52.504;13.358;2024-01-30T03:41:58;102507.09;;;3.80;67.36
41596;BME280;27283;52.504;13.358;2024-01-30T03:44:31;102500.13;;;3.77;67.85
41596;BME280;27283;52.504;13.358;2024-01-30T03:47:05;102500.75;;;3.65;68.09
41596;BME280;27283;52.504;13.358;2024-01-30T03:49:38;102497.78;;;3.71;67.98
41596;BME280;27283;52.504;13.358;2024-01-30T03:52:11;102498.44;;;3.76;67.96
41596;BME280;27283;52.504;13.358;2024-01-30T03:54:46;102500.44;;;3.71;67.98
41596;BME280;27283;52.504;13.358;2024-01-30T03:57:19;102504.28;;;3.83;67.61
41596;BME280;27283;52.504;13.358;2024-01-30T03:59:52;102505.28;;;3.98;67.82
41596;BME280;27283;52.504;13.358;2024-01-30T04:02:29;102501.53;;;3.84;67.71
41596;BME280;27283;52.504;13.358;2024-01-30T04:05:01;102497.88;;;3.87;67.73
41596;BME280;27283;52.504;13.358;2024-01-30T04:07:34;102509.69;;;3.99;67.61
41596;BME280;27283;52.504;13.358;2024-01-30T04:10:11;102496.78;;;3.73;68.72
41596;BME280;27283;52.504;13.358;2024-01-30T04:12:43;102507.78;;;3.83;68.26
41596;BME280;27283;52.504;13.358;2024-01-30T04:15:16;102502.81;;;3.95;67.60
41596;BME280;27283;52.504;13.358;2024-01-30T04:17:49;102504.53;;;3.96;67.15
41596;BME280;27283;52.504;13.358;2024-01-30T04:20:21;102508.88;;;3.97;67.05
41596;BME280;27283;52.504;13.358;2024-01-30T04:22:54;102514.63;;;4.06;67.09
41596;BME280;27283;52.504;13.358;2024-01-30T04:25:29;102516.88;;;3.97;67.72
41596;BME280;27283;52.504;13.358;2024-01-30T04:28:02;102504.22;;;3.84;67.90
41596;BME280;27283;52.504;13.358;2024-01-30T04:30:34;102506.88;;;3.49;69.00
41596;BME280;27283;52.504;13.358;2024-01-30T04:33:08;102495.69;;;3.78;68.45
41596;BME280;27283;52.504;13.358;2024-01-30T04:35:40;102498.66;;;3.89;68.34
41596;BME280;27283;52.504;13.358;2024-01-30T04:38:14;102498.31;;;3.43;69.75
41596;BME280;27283;52.504;13.358;2024-01-30T04:40:49;102492.16;;;3.95;68.19
41596;BME280;27283;52.504;13.358;2024-01-30T04:43:22;102494.66;;;3.98;67.74
41596;BME280;27283;52.504;13.358;2024-01-30T04:45:56;102494.31;;;4.04;67.46
41596;BME280;27283;52.504;13.358;2024-01-30T04:48:30;102489.66;;;3.92;67.74
41596;BME280;27283;52.504;13.358;2024-01-30T04:51:02;102493.47;;;4.03;67.26
41596;BME280;27283;52.504;13.358;2024-01-30T04:53:35;102496.72;;;3.93;67.87
41596;BME280;27283;52.504;13.358;2024-01-30T04:56:12;102490.59;;;3.55;68.69
41596;BME280;27283;52.504;13.358;2024-01-30T04:58:45;102491.91;;;3.82;68.87
41596;BME280;27283;52.504;13.358;2024-01-30T05:01:18;102488.94;;;3.53;69.32
41596;BME280;27283;52.504;13.358;2024-01-30T05:03:51;102485.41;;;3.87;68.66
41596;BME280;27283;52.504;13.358;2024-01-30T05:06:26;102490.59;;;3.90;67.83
41596;BME280;27283;52.504;13.358;2024-01-30T05:09:00;102479.63;;;3.97;67.89
41596;BME280;27283;52.504;13.358;2024-01-30T05:11:40;102487.00;;;3.74;67.97
41596;BME280;27283;52.504;13.358;2024-01-30T05:14:16;102490.41;;;3.94;67.97
41596;BME280;27283;52.504;13.358;2024-01-30T05:16:48;102495.34;;;4.01;67.75
41596;BME280;27283;52.504;13.358;2024-01-30T05:19:21;102497.84;;;4.04;67.31
41596;BME280;27283;52.504;13.358;2024-01-30T05:22:01;102491.38;;;3.93;67.73
41596;BME280;27283;52.504;13.358;2024-01-30T05:24:34;102490.66;;;3.89;67.84
41596;BME280;27283;52.504;13.358;2024-01-30T05:27:10;102496.66;;;4.10;66.93
41596;BME280;27283;52.504;13.358;2024-01-30T05:29:45;102493.72;;;3.99;67.43
41596;BME280;27283;52.504;13.358;2024-01-30T05:32:19;102495.22;;;3.87;67.45
41596;BME280;27283;52.504;13.358;2024-01-30T05:34:52;102488.31;;;4.00;67.48
41596;BME280;27283;52.504;13.358;2024-01-30T05:37:24;102479.38;;;4.01;67.02
41596;BME280;27283;52.504;13.358;2024-01-30T05:39:58;102485.09;;;3.94;66.98
41596;BME280;27283;52.504;13.358;2024-01-30T05:42:33;102478.94;;;3.76;67.94
41596;BME280;27283;52.504;13.358;2024-01-30T05:45:07;102476.44;;;3.72;68.29
41596;BME280;27283;52.504;13.358;2024-01-30T05:47:40;102480.66;;;3.94;67.29
41596;BME280;27283;52.504;13.358;2024-01-30T05:50:13;102484.34;;;3.92;67.42
41596;BME280;27283;52.504;13.358;2024-01-30T05:52:46;102485.66;;;3.83;67.93
41596;BME280;27283;52.504;13.358;2024-01-30T05:55:23;102480.91;;;3.89;67.46
41596;BME280;27283;52.504;13.358;2024-01-30T05:58:01;102481.03;;;4.04;67.03
41596;BME280;27283;52.504;13.358;2024-01-30T06:00:42;102469.53;;;3.86;67.27
41596;BME280;27283;52.504;13.358;2024-01-30T06:03:14;102476.44;;;3.72;67.54
41596;BME280;27283;52.504;13.358;2024-01-30T06:05:47;102475.69;;;3.86;67.48
41596;BME280;27283;52.504;13.358;2024-01-30T06:08:23;102476.66;;;3.85;67.57
41596;BME280;27283;52.504;13.358;2024-01-30T06:10:56;102480.56;;;3.96;67.34
41596;BME280;27283;52.504;13.358;2024-01-30T06:13:32;102477.75;;;3.99;67.22
41596;BME280;27283;52.504;13.358;2024-01-30T06:16:05;102476.66;;;3.85;67.09
41596;BME280;27283;52.504;13.358;2024-01-30T06:18:41;102476.66;;;3.68;68.43
41596;BME280;27283;52.504;13.358;2024-01-30T06:21:17;102479.16;;;3.71;67.94
41596;BME280;27283;52.504;13.358;2024-01-30T06:24:00;102474.94;;;3.84;67.85
41596;BME280;27283;52.504;13.358;2024-01-30T06:26:35;102472.69;;;3.77;67.61
41596;BME280;27283;52.504;13.358;2024-01-30T06:29:11;102474.84;;;3.86;67.71
41596;BME280;27283;52.504;13.358;2024-01-30T06:31:47;102480.56;;;3.61;68.14
41596;BME280;27283;52.504;13.358;2024-01-30T06:34:21;102466.19;;;3.65;68.21
41596;BME280;27283;52.504;13.358;2024-01-30T06:36:55;102477.38;;;3.71;68.11
41596;BME280;27283;52.504;13.358;2024-01-30T06:39:29;102473.69;;;3.57;68.47
41596;BME280;27283;52.504;13.358;2024-01-30T06:42:03;102470.38;;;3.86;67.82
41596;BME280;27283;52.504;13.358;2024-01-30T06:44:38;102468.16;;;4.12;66.67
41596;BME280;27283;52.504;13.358;2024-01-30T06:47:12;102474.31;;;3.79;67.49
41596;BME280;27283;52.504;13.358;2024-01-30T06:49:46;102471.78;;;4.11;66.90
41596;BME280;27283;52.504;13.358;2024-01-30T06:52:19;102472.59;;;4.29;66.15
41596;BME280;27283;52.504;13.358;2024-01-30T06:54:52;102472.63;;;4.12;66.99
41596;BME280;27283;52.504;13.358;2024-01-30T06:57:24;102482.03;;;4.01;67.29
41596;BME280;27283;52.504;13.358;2024-01-30T07:00:00;102478.28;;;4.05;67.80
41596;BME280;27283;52.504;13.358;2024-01-30T07:02:32;102478.25;;;3.89;67.60
41596;BME280;27283;52.504;13.358;2024-01-30T07:05:10;102476.03;;;3.80;68.32
41596;BME280;27283;52.504;13.358;2024-01-30T07:07:45;102467.59;;;3.72;68.20
41596;BME280;27283;52.504;13.358;2024-01-30T07:10:18;102474.00;;;3.85;67.69
41596;BME280;27283;52.504;13.358;2024-01-30T07:12:52;102486.06;;;3.93;67.84
41596;BME280;27283;52.504;13.358;2024-01-30T07:15:33;102478.25;;;4.23;66.99
41596;BME280;27283;52.504;13.358;2024-01-30T07:18:06;102474.13;;;4.33;66.84
41596;BME280;27283;52.504;13.358;2024-01-30T07:20:46;102473.13;;;4.36;66.44
41596;BME280;27283;52.504;13.358;2024-01-30T07:23:19;102475.84;;;4.01;67.09
41596;BME280;27283;52.504;13.358;2024-01-30T07:25:53;102473.28;;;3.99;67.32
41596;BME280;27283;52.504;13.358;2024-01-30T07:28:26;102472.66;;;3.94;67.55
41596;BME280;27283;52.504;13.358;2024-01-30T07:31:04;102477.78;;;4.48;66.21
41596;BME280;27283;52.504;13.358;2024-01-30T07:33:38;102467.03;;;4.34;65.85
41596;BME280;27283;52.504;13.358;2024-01-30T07:36:11;102463.25;;;4.54;65.88
41596;BME280;27283;52.504;13.358;2024-01-30T07:38:44;102470.47;;;4.68;64.95
41596;BME280;27283;52.504;13.358;2024-01-30T07:41:17;102463.97;;;4.73;64.58
41596;BME280;27283;52.504;13.358;2024-01-30T07:43:50;102459.91;;;4.98;63.89
41596;BME280;27283;52.504;13.358;2024-01-30T07:46:25;102463.28;;;4.70;63.65
41596;BME280;27283;52.504;13.358;2024-01-30T07:49:02;102466.78;;;4.38;65.56
41596;BME280;27283;52.504;13.358;2024-01-30T07:51:37;102472.28;;;4.51;65.17
41596;BME280;27283;52.504;13.358;2024-01-30T07:54:11;102469.25;;;4.57;65.32
41596;BME280;27283;52.504;13.358;2024-01-30T07:56:44;102467.38;;;4.43;65.19
41596;BME280;27283;52.504;13.358;2024-01-30T07:59:17;102462.41;;;4.53;65.25
41596;BME280;27283;52.504;13.358;2024-01-30T08:01:58;102461.28;;;4.57;65.58
41596;BME280;27283;52.504;13.358;2024-01-30T08:04:32;102460.09;;;4.47;65.67
41596;BME280;27283;52.504;13.358;2024-01-30T08:07:06;102457.09;;;4.85;64.62
41596;BME280;27283;52.504;13.358;2024-01-30T08:09:45;102464.91;;;5.04;63.03
41596;BME280;27283;52.504;13.358;2024-01-30T08:12:18;102464.38;;;4.97;63.29
41596;BME280;27283;52.504;13.358;2024-01-30T08:14:52;102464.41;;;4.82;63.87
41596;BME280;27283;52.504;13.358;2024-01-30T08:17:27;102463.19;;;5.03;62.97
41596;BME280;27283;52.504;13.358;2024-01-30T08:20:01;102467.09;;;5.28;62.31
41596;BME280;27283;52.504;13.358;2024-01-30T08:22:34;102459.72;;;5.01;63.06
41596;BME280;27283;52.504;13.358;2024-01-30T08:25:07;102452.56;;;5.18;62.31
41596;BME280;27283;52.504;13.358;2024-01-30T08:27:41;102458.59;;;5.21;62.07
41596;BME280;27283;52.504;13.358;2024-01-30T08:30:15;102451.69;;;5.33;61.77
41596;BME280;27283;52.504;13.358;2024-01-30T08:32:50;102458.06;;;5.61;60.82
41596;BME280;27283;52.504;13.358;2024-01-30T08:35:26;102452.44;;;5.65;60.81
41596;BME280;27283;52.504;13.358;2024-01-30T08:38:01;102447.47;;;5.59;60.31
41596;BME280;27283;52.504;13.358;2024-01-30T08:40:36;102450.44;;;5.39;60.90
41596;BME280;27283;52.504;13.358;2024-01-30T08:43:14;102448.56;;;5.71;60.18
41596;BME280;27283;52.504;13.358;2024-01-30T08:45:53;102448.72;;;6.13;59.08
41596;BME280;27283;52.504;13.358;2024-01-30T08:48:29;102441.75;;;6.10;58.28
41596;BME280;27283;52.504;13.358;2024-01-30T08:51:05;102444.41;;;6.39;57.33
41596;BME280;27283;52.504;13.358;2024-01-30T08:53:41;102440.59;;;6.29;57.54
41596;BME280;27283;52.504;13.358;2024-01-30T08:56:24;102437.16;;;6.41;56.92
41596;BME280;27283;52.504;13.358;2024-01-30T08:59:13;102435.06;;;6.46;56.41
41596;BME280;27283;52.504;13.358;2024-01-30T09:01:46;102444.69;;;6.63;55.99
41596;BME280;27283;52.504;13.358;2024-01-30T09:04:41;102442.03;;;6.90;54.88
41596;BME280;27283;52.504;13.358;2024-01-30T09:07:14;102441.94;;;6.92;54.78
41596;BME280;27283;52.504;13.358;2024-01-30T09:09:48;102441.72;;;6.68;55.10
41596;BME280;27283;52.504;13.358;2024-01-30T09:12:21;102432.97;;;6.93;54.53
41596;BME280;27283;52.504;13.358;2024-01-30T09:14:54;102437.00;;;6.71;55.45
41596;BME280;27283;52.504;13.358;2024-01-30T09:17:27;102435.72;;;6.91;54.50
41596;BME280;27283;52.504;13.358;2024-01-30T09:20:05;102445.53;;;7.18;54.34
41596;BME280;27283;52.504;13.358;2024-01-30T09:22:38;102443.06;;;7.15;54.11
41596;BME280;27283;52.504;13.358;2024-01-30T09:25:10;102441.50;;;7.25;53.57
41596;BME280;27283;52.504;13.358;2024-01-30T09:27:43;102439.88;;;7.63;52.17
41596;BME280;27283;52.504;13.358;2024-01-30T09:30:16;102440.31;;;7.70;51.68
41596;BME280;27283;52.504;13.358;2024-01-30T09:32:49;102438.50;;;7.70;51.68
41596;BME280;27283;52.504;13.358;2024-01-30T09:35:24;102440.94;;;7.60;52.28
41596;BME280;27283;52.504;13.358;2024-01-30T09:37:58;102442.25;;;7.80;51.48
41596;BME280;27283;52.504;13.358;2024-01-30T09:40:30;102443.59;;;7.48;51.82
41596;BME280;27283;52.504;13.358;2024-01-30T09:43:04;102441.97;;;7.45;51.79
41596;BME280;27283;52.504;13.358;2024-01-30T09:45:36;102439.56;;;7.93;51.32
41596;BME280;27283;52.504;13.358;2024-01-30T09:48:11;102440.19;;;8.23;50.01
41596;BME280;27283;52.504;13.358;2024-01-30T09:50:53;102437.75;;;7.81;50.56
41596;BME280;27283;52.504;13.358;2024-01-30T09:53:34;102429.44;;;7.33;51.92
41596;BME280;27283;52.504;13.358;2024-01-30T09:56:08;102430.03;;;7.76;51.64
41596;BME280;27283;52.504;13.358;2024-01-30T09:58:40;102430.34;;;8.23;49.70
41596;BME280;27283;52.504;13.358;2024-01-30T10:01:12;102431.63;;;8.30;49.44
41596;BME280;27283;52.504;13.358;2024-01-30T10:03:50;102429.78;;;8.18;49.47
41596;BME280;27283;52.504;13.358;2024-01-30T10:06:28;102434.72;;;8.37;48.62
41596;BME280;27283;52.504;13.358;2024-01-30T10:09:00;102434.09;;;8.21;49.14
41596;BME280;27283;52.504;13.358;2024-01-30T10:11:33;102429.38;;;7.73;50.25
41596;BME280;27283;52.504;13.358;2024-01-30T10:14:05;102428.50;;;8.49;48.04
41596;BME280;27283;52.504;13.358;2024-01-30T10:16:38;102417.66;;;8.51;47.46
41596;BME280;27283;52.504;13.358;2024-01-30T10:19:11;102415.13;;;8.74;47.35
41596;BME280;27283;52.504;13.358;2024-01-30T10:21:46;102412.31;;;8.75;47.76
41596;BME280;27283;52.504;13.358;2024-01-30T10:24:18;102410.16;;;8.56;48.47
41596;BME280;27283;52.504;13.358;2024-01-30T10:26:58;102408.94;;;8.60;46.80
41596;BME280;27283;52.504;13.358;2024-01-30T10:29:31;102408.53;;;8.41;48.20
41596;BME280;27283;52.504;13.358;2024-01-30T10:32:08;102413.47;;;8.47;48.01
41596;BME280;27283;52.504;13.358;2024-01-30T10:34:41;102409.16;;;8.57;47.17
41596;BME280;27283;52.504;13.358;2024-01-30T10:37:18;102417.16;;;8.20;48.92
41596;BME280;27283;52.504;13.358;2024-01-30T10:39:54;102404.44;;;8.61;51.54
41596;BME280;27283;52.504;13.358;2024-01-30T10:42:31;102407.06;;;8.74;48.07
41596;BME280;27283;52.504;13.358;2024-01-30T10:45:10;102409.41;;;8.78;47.89
41596;BME280;27283;52.504;13.358;2024-01-30T10:47:56;102401.41;;;9.14;46.04
41596;BME280;27283;52.504;13.358;2024-01-30T10:50:45;102412.44;;;8.98;46.93
41596;BME280;27283;52.504;13.358;2024-01-30T10:53:31;102415.69;;;9.14;46.35
41596;BME280;27283;52.504;13.358;2024-01-30T10:56:06;102407.94;;;8.98;46.57
41596;BME280;27283;52.504;13.358;2024-01-30T10:58:56;102410.06;;;8.82;47.12
41596;BME280;27283;52.504;13.358;2024-01-30T11:01:30;102406.28;;;8.84;46.95
41596;BME280;27283;52.504;13.358;2024-01-30T11:04:06;102407.03;;;9.11;46.29
41596;BME280;27283;52.504;13.358;2024-01-30T11:07:03;102408.78;;;9.23;45.93
41596;BME280;27283;52.504;13.358;2024-01-30T11:09:59;102403.72;;;8.83;47.70
41596;BME280;27283;52.504;13.358;2024-01-30T11:14:01;102404.56;;;9.08;45.99
41596;BME280;27283;52.504;13.358;2024-01-30T11:16:40;102403.59;;;8.84;47.02
41596;BME280;27283;52.504;13.358;2024-01-30T11:19:15;102402.69;;;8.97;46.19
41596;BME280;27283;52.504;13.358;2024-01-30T11:21:56;102398.06;;;8.75;46.08
41596;BME280;27283;52.504;13.358;2024-01-30T11:24:31;102398.09;;;8.62;47.69
41596;BME280;27283;52.504;13.358;2024-01-30T11:27:13;102394.97;;;8.68;47.68
41596;BME280;27283;52.504;13.358;2024-01-30T11:30:01;102400.41;;;9.03;46.14
41596;BME280;27283;52.504;13.358;2024-01-30T11:32:38;102391.66;;;9.13;46.23
41596;BME280;27283;52.504;13.358;2024-01-30T11:35:11;102387.19;;;9.36;45.64
41596;BME280;27283;52.504;13.358;2024-01-30T11:37:45;102394.81;;;9.42;46.12
41596;BME280;27283;52.504;13.358;2024-01-30T11:40:24;102391.78;;;9.58;46.99
41596;BME280;27283;52.504;13.358;2024-01-30T11:43:12;102394.22;;;9.61;46.62
41596;BME280;27283;52.504;13.358;2024-01-30T11:46:05;102397.44;;;9.66;45.39
41596;BME280;27283;52.504;13.358;2024-01-30T11:48:45;102394.34;;;9.60;46.67
41596;BME280;27283;52.504;13.358;2024-01-30T11:51:18;102387.16;;;9.83;45.50
41596;BME280;27283;52.504;13.358;2024-01-30T11:53:51;102388.41;;;9.90;44.36
41596;BME280;27283;52.504;13.358;2024-01-30T11:56:37;102372.91;;;9.93;44.29
41596;BME280;27283;52.504;13.358;2024-01-30T11:59:33;102384.72;;;9.68;46.21
41596;BME280;27283;52.504;13.358;2024-01-30T12:02:05;102378.78;;;9.87;46.64
41596;BME280;27283;52.504;13.358;2024-01-30T12:04:38;102375.94;;;9.78;45.66
41596;BME280;27283;52.504;13.358;2024-01-30T12:07:11;102374.34;;;9.64;46.10
41596;BME280;27283;52.504;13.358;2024-01-30T12:09:52;102379.03;;;9.37;47.98
41596;BME280;27283;52.504;13.358;2024-01-30T12:12:24;102367.53;;;9.93;45.32
41596;BME280;27283;52.504;13.358;2024-01-30T12:14:59;102366.63;;;9.48;47.72
41596;BME280;27283;52.504;13.358;2024-01-30T12:17:33;102369.22;;;10.28;44.76
41596;BME280;27283;52.504;13.358;2024-01-30T12:20:07;102364.97;;;10.15;45.35
41596;BME280;27283;52.504;13.358;2024-01-30T12:22:42;102341.94;;;10.44;44.09
41596;BME280;27283;52.504;13.358;2024-01-30T12:25:20;102344.94;;;10.07;45.13
41596;BME280;27283;52.504;13.358;2024-01-30T12:27:55;102341.75;;;9.91;45.50
41596;BME280;27283;52.504;13.358;2024-01-30T12:30:31;102331.13;;;9.89;45.35
41596;BME280;27283;52.504;13.358;2024-01-30T12:33:07;102338.59;;;10.08;44.83
41596;BME280;27283;52.504;13.358;2024-01-30T12:35:40;102332.31;;;10.31;45.03
41596;BME280;27283;52.504;13.358;2024-01-30T12:38:30;102331.00;;;9.91;46.23
41596;BME280;27283;52.504;13.358;2024-01-30T12:41:02;102327.22;;;9.48;47.67
41596;BME280;27283;52.504;13.358;2024-01-30T12:43:34;102325.00;;;9.99;45.77
41596;BME280;27283;52.504;13.358;2024-01-30T12:46:09;102314.16;;;9.78;46.79
41596;BME280;27283;52.504;13.358;2024-01-30T12:48:45;102313.19;;;9.79;46.97
41596;BME280;27283;52.504;13.358;2024-01-30T12:51:20;102303.91;;;9.71;46.74
41596;BME280;27283;52.504;13.358;2024-01-30T12:53:54;102308.03;;;9.64;47.11
41596;BME280;27283;52.504;13.358;2024-01-30T12:56:28;102300.34;;;9.60;47.42
41596;BME280;27283;52.504;13.358;2024-01-30T12:59:08;102308.16;;;9.85;47.30
41596;BME280;27283;52.504;13.358;2024-01-30T13:01:46;102304.13;;;9.91;46.82
41596;BME280;27283;52.504;13.358;2024-01-30T13:04:20;102310.97;;;9.61;47.39
41596;BME280;27283;52.504;13.358;2024-01-30T13:07:19;102299.88;;;9.77;47.90
41596;BME280;27283;52.504;13.358;2024-01-30T13:10:11;102302.66;;;9.64;48.28
41596;BME280;27283;52.504;13.358;2024-01-30T13:12:46;102305.34;;;9.64;48.31
41596;BME280;27283;52.504;13.358;2024-01-30T13:15:25;102302.44;;;9.79;47.92
41596;BME280;27283;52.504;13.358;2024-01-30T13:18:02;102300.13;;;9.51;48.38
41596;BME280;27283;52.504;13.358;2024-01-30T13:20:35;102292.06;;;9.63;48.11
41596;BME280;27283;52.504;13.358;2024-01-30T13:23:10;102291.81;;;9.32;49.54
41596;BME280;27283;52.504;13.358;2024-01-30T13:25:45;102290.31;;;9.39;49.17
41596;BME280;27283;52.504;13.358;2024-01-30T13:31:36;102280.09;;;9.44;49.53
41596;BME280;27283;52.504;13.358;2024-01-30T13:34:13;102278.00;;;9.70;50.62
41596;BME280;27283;52.504;13.358;2024-01-30T13:36:48;102275.81;;;9.87;48.85